BBC Congo — V2EL3 — position and weather

sailwx.info

Track history (hours):
 
Tides and Currents Weather Stations Pressure Air Temp Water Temp Dewpoint Dewpoint Depression Visibility Wind Speed Wind Dir Waves Ship Positions

BBC Congo

Last reported at 2017-Oct-04 15:03 UTC. Time now 2017-Nov-20 09:42 UTC.
Position N 01°15' E 103°60'.
Warning: this ship's position is 46 days out of date.

Length 144 m; draft 8.1 m.

Type: Ship (hazmat cat A). MMSI: 305466000.

Date/timePositionNaut miles runAvg speedWind from/ knotsBaromVisibWave heightAir tempDewpointWater temp
2017-Oct-04 15:03N 01°15' E 103°60'0 2.6
2017-Oct-04 15:00N 01°15' E 103°60'2 3.1
2017-Oct-04 14:29N 01°16' E 104°01'2 3.1
2017-Oct-04 13:58N 01°16' E 104°03'41 5.2
2017-Oct-04 06:06N 01°17' E 103°22'214.1
2017-Oct-04 05:58N 01°16' E 103°23'613.4
2017-Oct-04 05:30N 01°13' E 103°29'713.3
2017-Oct-04 05:00N 01°12' E 103°35'713.1
2017-Oct-04 04:30N 01°10' E 103°41'612.1
2017-Oct-04 04:01N 01°10' E 103°47'713.7
2017-Oct-04 03:31N 01°13' E 103°54'713.3
2017-Oct-04 02:59N 01°15' E 104°00'  
Track history (hours):
 
Tides and Currents Weather Stations Pressure Air Temp Water Temp Dewpoint Dewpoint Depression Visibility Wind Speed Wind Dir Waves Ship Positions

BBC Congo

Last reported at 2017-Oct-04 15:03 UTC. Time now 2017-Nov-20 09:42 UTC.
Position N 01°15' E 103°60'.
Warning: this ship's position is 46 days out of date.

Length 144 m; draft 8.1 m.

Type: Ship (hazmat cat A). MMSI: 305466000.

Date/timePositionNaut miles runAvg speedWind from/ knotsBaromVisibWave heightAir tempDewpointWater temp
2017-Oct-04 15:03N 01°15' E 103°60'0 2.6
2017-Oct-04 15:00N 01°15' E 103°60'2 3.1
2017-Oct-04 14:29N 01°16' E 104°01'2 3.1
2017-Oct-04 13:58N 01°16' E 104°03'41 5.2
2017-Oct-04 06:06N 01°17' E 103°22'214.1
2017-Oct-04 05:58N 01°16' E 103°23'613.4
2017-Oct-04 05:30N 01°13' E 103°29'713.3
2017-Oct-04 05:00N 01°12' E 103°35'713.1
2017-Oct-04 04:30N 01°10' E 103°41'612.1
2017-Oct-04 04:01N 01°10' E 103°47'713.7
2017-Oct-04 03:31N 01°13' E 103°54'713.3
2017-Oct-04 02:59N 01°15' E 104°00'  

Dump ship's entire track history